sensor_id;sensor_type;location;lat;lon;timestamp;temperature;humidity
6486;DHT22;3276;48.490;9.222;2024-02-15T00:01:30;9.30;19.40
6486;DHT22;3276;48.490;9.222;2024-02-15T00:03:56;9.30;19.30
6486;DHT22;3276;48.490;9.222;2024-02-15T00:06:22;9.40;18.90
6486;DHT22;3276;48.490;9.222;2024-02-15T00:08:48;9.30;18.90
6486;DHT22;3276;48.490;9.222;2024-02-15T00:11:15;9.40;18.70
6486;DHT22;3276;48.490;9.222;2024-02-15T00:13:41;9.40;18.40
6486;DHT22;3276;48.490;9.222;2024-02-15T00:16:06;9.40;18.70
6486;DHT22;3276;48.490;9.222;2024-02-15T00:18:32;9.40;18.70
6486;DHT22;3276;48.490;9.222;2024-02-15T00:20:57;9.40;18.70
6486;DHT22;3276;48.490;9.222;2024-02-15T00:23:25;9.40;18.20
6486;DHT22;3276;48.490;9.222;2024-02-15T00:25:50;9.40;19.30
6486;DHT22;3276;48.490;9.222;2024-02-15T00:28:16;9.50;18.80
6486;DHT22;3276;48.490;9.222;2024-02-15T00:30:42;9.50;18.00
6486;DHT22;3276;48.490;9.222;2024-02-15T00:33:08;9.40;18.70
6486;DHT22;3276;48.490;9.222;2024-02-15T00:35:33;9.40;18.70
6486;DHT22;3276;48.490;9.222;2024-02-15T00:37:59;9.40;18.10
6486;DHT22;3276;48.490;9.222;2024-02-15T00:40:24;9.40;18.40
6486;DHT22;3276;48.490;9.222;2024-02-15T00:42:50;9.50;17.70
6486;DHT22;3276;48.490;9.222;2024-02-15T00:45:15;9.50;18.00
6486;DHT22;3276;48.490;9.222;2024-02-15T00:47:41;9.50;18.80
6486;DHT22;3276;48.490;9.222;2024-02-15T00:50:08;9.50;17.70
6486;DHT22;3276;48.490;9.222;2024-02-15T00:52:35;9.50;17.80
6486;DHT22;3276;48.490;9.222;2024-02-15T00:55:00;9.60;17.30
6486;DHT22;3276;48.490;9.222;2024-02-15T00:57:26;9.60;16.70
6486;DHT22;3276;48.490;9.222;2024-02-15T00:59:51;9.60;16.80
6486;DHT22;3276;48.490;9.222;2024-02-15T01:02:17;9.70;16.70
6486;DHT22;3276;48.490;9.222;2024-02-15T01:04:43;9.70;16.10
6486;DHT22;3276;48.490;9.222;2024-02-15T01:07:10;9.70;16.20
6486;DHT22;3276;48.490;9.222;2024-02-15T01:09:36;9.60;16.20
6486;DHT22;3276;48.490;9.222;2024-02-15T01:12:02;9.60;16.40
6486;DHT22;3276;48.490;9.222;2024-02-15T01:14:29;9.50;16.40
6486;DHT22;3276;48.490;9.222;2024-02-15T01:16:56;9.50;17.00
6486;DHT22;3276;48.490;9.222;2024-02-15T01:19:22;9.50;17.20
6486;DHT22;3276;48.490;9.222;2024-02-15T01:21:47;9.40;16.90
6486;DHT22;3276;48.490;9.222;2024-02-15T01:24:13;9.40;17.10
6486;DHT22;3276;48.490;9.222;2024-02-15T01:26:38;9.30;17.60
6486;DHT22;3276;48.490;9.222;2024-02-15T01:29:04;9.20;17.20
6486;DHT22;3276;48.490;9.222;2024-02-15T01:31:29;9.00;18.40
6486;DHT22;3276;48.490;9.222;2024-02-15T01:33:55;8.90;19.70
6486;DHT22;3276;48.490;9.222;2024-02-15T01:36:21;8.80;19.90
6486;DHT22;3276;48.490;9.222;2024-02-15T01:38:46;8.60;21.70
6486;DHT22;3276;48.490;9.222;2024-02-15T01:41:12;8.50;23.00
6486;DHT22;3276;48.490;9.222;2024-02-15T01:43:38;8.40;24.80
6486;DHT22;3276;48.490;9.222;2024-02-15T01:46:10;8.30;26.40
6486;DHT22;3276;48.490;9.222;2024-02-15T01:48:40;8.20;26.30
6486;DHT22;3276;48.490;9.222;2024-02-15T01:51:07;8.20;26.90
6486;DHT22;3276;48.490;9.222;2024-02-15T01:53:33;8.10;27.40
6486;DHT22;3276;48.490;9.222;2024-02-15T01:56:00;8.10;27.60
6486;DHT22;3276;48.490;9.222;2024-02-15T01:58:27;8.10;28.00
6486;DHT22;3276;48.490;9.222;2024-02-15T02:00:53;8.00;27.90
6486;DHT22;3276;48.490;9.222;2024-02-15T02:03:21;8.00;28.00
6486;DHT22;3276;48.490;9.222;2024-02-15T02:05:47;7.90;28.70
6486;DHT22;3276;48.490;9.222;2024-02-15T02:08:13;7.80;29.30
6486;DHT22;3276;48.490;9.222;2024-02-15T02:10:41;7.80;30.00
6486;DHT22;3276;48.490;9.222;2024-02-15T02:13:08;7.80;29.50
6486;DHT22;3276;48.490;9.222;2024-02-15T02:15:35;7.80;30.00
6486;DHT22;3276;48.490;9.222;2024-02-15T02:18:02;7.80;30.10
6486;DHT22;3276;48.490;9.222;2024-02-15T02:20:28;7.70;30.00
6486;DHT22;3276;48.490;9.222;2024-02-15T02:23:01;7.70;30.00
6486;DHT22;3276;48.490;9.222;2024-02-15T02:25:32;7.70;29.80
6486;DHT22;3276;48.490;9.222;2024-02-15T02:27:58;7.60;30.00
6486;DHT22;3276;48.490;9.222;2024-02-15T02:30:24;7.50;29.90
6486;DHT22;3276;48.490;9.222;2024-02-15T02:32:57;7.50;29.90
6486;DHT22;3276;48.490;9.222;2024-02-15T02:35:24;7.40;30.00
6486;DHT22;3276;48.490;9.222;2024-02-15T02:37:51;7.30;30.70
6486;DHT22;3276;48.490;9.222;2024-02-15T02:40:18;7.30;31.20
6486;DHT22;3276;48.490;9.222;2024-02-15T02:45:21;7.10;33.20
6486;DHT22;3276;48.490;9.222;2024-02-15T02:47:53;7.10;33.80
6486;DHT22;3276;48.490;9.222;2024-02-15T02:50:20;7.00;33.80
6486;DHT22;3276;48.490;9.222;2024-02-15T02:52:46;6.90;34.50
6486;DHT22;3276;48.490;9.222;2024-02-15T02:55:14;6.90;35.30
6486;DHT22;3276;48.490;9.222;2024-02-15T02:57:39;6.80;34.50
6486;DHT22;3276;48.490;9.222;2024-02-15T03:00:06;6.80;35.90
6486;DHT22;3276;48.490;9.222;2024-02-15T03:02:38;6.70;35.70
6486;DHT22;3276;48.490;9.222;2024-02-15T03:05:05;6.60;34.30
6486;DHT22;3276;48.490;9.222;2024-02-15T03:07:35;6.60;35.80
6486;DHT22;3276;48.490;9.222;2024-02-15T03:10:01;6.50;35.90
6486;DHT22;3276;48.490;9.222;2024-02-15T03:12:27;6.40;35.60
6486;DHT22;3276;48.490;9.222;2024-02-15T03:14:55;6.40;37.00
6486;DHT22;3276;48.490;9.222;2024-02-15T03:17:21;6.40;37.30
6486;DHT22;3276;48.490;9.222;2024-02-15T03:19:46;6.40;37.40
6486;DHT22;3276;48.490;9.222;2024-02-15T03:22:14;6.40;37.30
6486;DHT22;3276;48.490;9.222;2024-02-15T03:24:40;6.40;37.50
6486;DHT22;3276;48.490;9.222;2024-02-15T03:27:06;6.40;38.00
6486;DHT22;3276;48.490;9.222;2024-02-15T03:29:31;6.40;38.70
6486;DHT22;3276;48.490;9.222;2024-02-15T03:31:59;6.40;38.70
6486;DHT22;3276;48.490;9.222;2024-02-15T03:34:24;6.40;38.80
6486;DHT22;3276;48.490;9.222;2024-02-15T03:36:51;6.50;39.10
6486;DHT22;3276;48.490;9.222;2024-02-15T03:39:19;6.50;39.40
6486;DHT22;3276;48.490;9.222;2024-02-15T03:41:45;6.50;38.30
6486;DHT22;3276;48.490;9.222;2024-02-15T03:44:12;6.50;38.10
6486;DHT22;3276;48.490;9.222;2024-02-15T03:46:37;6.50;37.20
6486;DHT22;3276;48.490;9.222;2024-02-15T03:49:03;6.50;37.20
6486;DHT22;3276;48.490;9.222;2024-02-15T03:51:28;6.50;37.60
6486;DHT22;3276;48.490;9.222;2024-02-15T03:53:54;6.40;37.10
6486;DHT22;3276;48.490;9.222;2024-02-15T03:56:19;6.40;37.20
6486;DHT22;3276;48.490;9.222;2024-02-15T03:58:46;6.40;37.60
6486;DHT22;3276;48.490;9.222;2024-02-15T04:01:12;6.40;36.50
6486;DHT22;3276;48.490;9.222;2024-02-15T04:03:40;6.30;37.10
6486;DHT22;3276;48.490;9.222;2024-02-15T04:06:06;6.30;37.40
6486;DHT22;3276;48.490;9.222;2024-02-15T04:08:31;6.30;36.30
6486;DHT22;3276;48.490;9.222;2024-02-15T04:10:57;6.30;37.20
6486;DHT22;3276;48.490;9.222;2024-02-15T04:13:23;6.30;39.20
6486;DHT22;3276;48.490;9.222;2024-02-15T04:15:49;6.40;39.30
6486;DHT22;3276;48.490;9.222;2024-02-15T04:18:16;6.50;39.30
6486;DHT22;3276;48.490;9.222;2024-02-15T04:20:43;6.60;39.40
6486;DHT22;3276;48.490;9.222;2024-02-15T04:23:11;6.70;37.80
6486;DHT22;3276;48.490;9.222;2024-02-15T04:25:36;6.80;36.20
6486;DHT22;3276;48.490;9.222;2024-02-15T04:28:02;7.00;34.70
6486;DHT22;3276;48.490;9.222;2024-02-15T04:30:31;7.00;33.90
6486;DHT22;3276;48.490;9.222;2024-02-15T04:32:57;7.10;32.60
6486;DHT22;3276;48.490;9.222;2024-02-15T04:35:23;7.20;29.80
6486;DHT22;3276;48.490;9.222;2024-02-15T04:37:53;7.30;29.30
6486;DHT22;3276;48.490;9.222;2024-02-15T04:40:19;7.30;29.00
6486;DHT22;3276;48.490;9.222;2024-02-15T04:42:44;7.30;28.70
6486;DHT22;3276;48.490;9.222;2024-02-15T04:45:12;7.40;27.80
6486;DHT22;3276;48.490;9.222;2024-02-15T04:47:39;7.40;26.60
6486;DHT22;3276;48.490;9.222;2024-02-15T04:50:06;7.40;25.80
6486;DHT22;3276;48.490;9.222;2024-02-15T04:52:32;7.40;26.40
6486;DHT22;3276;48.490;9.222;2024-02-15T04:54:58;7.40;25.80
6486;DHT22;3276;48.490;9.222;2024-02-15T04:57:24;7.40;25.80
6486;DHT22;3276;48.490;9.222;2024-02-15T04:59:53;7.40;25.20
6486;DHT22;3276;48.490;9.222;2024-02-15T05:02:19;7.30;25.80
6486;DHT22;3276;48.490;9.222;2024-02-15T05:04:45;7.30;26.10
6486;DHT22;3276;48.490;9.222;2024-02-15T05:07:11;7.40;25.80
6486;DHT22;3276;48.490;9.222;2024-02-15T05:09:36;7.40;25.80
6486;DHT22;3276;48.490;9.222;2024-02-15T05:12:02;7.40;25.00
6486;DHT22;3276;48.490;9.222;2024-02-15T05:14:28;7.40;25.30
6486;DHT22;3276;48.490;9.222;2024-02-15T05:16:54;7.30;25.30
6486;DHT22;3276;48.490;9.222;2024-02-15T05:19:19;7.40;25.00
6486;DHT22;3276;48.490;9.222;2024-02-15T05:21:45;7.30;24.80
6486;DHT22;3276;48.490;9.222;2024-02-15T05:24:15;7.30;25.40
6486;DHT22;3276;48.490;9.222;2024-02-15T05:26:41;7.30;25.70
6486;DHT22;3276;48.490;9.222;2024-02-15T05:29:14;7.20;25.70
6486;DHT22;3276;48.490;9.222;2024-02-15T05:31:40;7.20;25.70
6486;DHT22;3276;48.490;9.222;2024-02-15T05:34:06;7.10;26.20
6486;DHT22;3276;48.490;9.222;2024-02-15T05:36:37;7.10;25.60
6486;DHT22;3276;48.490;9.222;2024-02-15T05:39:03;7.00;26.50
6486;DHT22;3276;48.490;9.222;2024-02-15T05:41:30;7.00;27.30
6486;DHT22;3276;48.490;9.222;2024-02-15T05:43:58;6.90;27.10
6486;DHT22;3276;48.490;9.222;2024-02-15T05:46:24;6.90;26.60
6486;DHT22;3276;48.490;9.222;2024-02-15T05:48:49;6.80;28.40
6486;DHT22;3276;48.490;9.222;2024-02-15T05:51:15;6.70;28.00
6486;DHT22;3276;48.490;9.222;2024-02-15T05:53:41;6.70;29.20
6486;DHT22;3276;48.490;9.222;2024-02-15T05:56:08;6.60;29.70
6486;DHT22;3276;48.490;9.222;2024-02-15T05:58:34;6.60;29.40
6486;DHT22;3276;48.490;9.222;2024-02-15T06:01:01;6.60;29.80
6486;DHT22;3276;48.490;9.222;2024-02-15T06:03:31;6.60;30.00
6486;DHT22;3276;48.490;9.222;2024-02-15T06:06:00;6.50;31.40
6486;DHT22;3276;48.490;9.222;2024-02-15T06:08:30;6.50;31.70
6486;DHT22;3276;48.490;9.222;2024-02-15T06:10:56;6.40;32.70
6486;DHT22;3276;48.490;9.222;2024-02-15T06:13:25;6.40;33.70
6486;DHT22;3276;48.490;9.222;2024-02-15T06:15:51;6.30;34.10
6486;DHT22;3276;48.490;9.222;2024-02-15T06:18:23;6.30;34.20
6486;DHT22;3276;48.490;9.222;2024-02-15T06:20:53;6.30;34.00
6486;DHT22;3276;48.490;9.222;2024-02-15T06:23:19;6.40;34.10
6486;DHT22;3276;48.490;9.222;2024-02-15T06:25:51;6.40;34.10
6486;DHT22;3276;48.490;9.222;2024-02-15T06:28:18;6.40;33.30
6486;DHT22;3276;48.490;9.222;2024-02-15T06:31:02;6.40;33.30
6486;DHT22;3276;48.490;9.222;2024-02-15T06:33:46;6.30;33.50
6486;DHT22;3276;48.490;9.222;2024-02-15T06:36:30;6.30;34.20
6486;DHT22;3276;48.490;9.222;2024-02-15T06:39:14;6.30;34.00
6486;DHT22;3276;48.490;9.222;2024-02-15T06:41:58;6.30;34.00
6486;DHT22;3276;48.490;9.222;2024-02-15T06:44:24;6.30;34.00
6486;DHT22;3276;48.490;9.222;2024-02-15T06:46:50;6.30;34.00
6486;DHT22;3276;48.490;9.222;2024-02-15T06:49:15;6.30;34.00
6486;DHT22;3276;48.490;9.222;2024-02-15T06:51:41;6.20;34.00
6486;DHT22;3276;48.490;9.222;2024-02-15T06:54:07;6.20;34.00
6486;DHT22;3276;48.490;9.222;2024-02-15T06:56:36;6.20;35.50
6486;DHT22;3276;48.490;9.222;2024-02-15T06:59:03;6.20;35.80
6486;DHT22;3276;48.490;9.222;2024-02-15T07:01:28;6.20;35.20
6486;DHT22;3276;48.490;9.222;2024-02-15T07:03:54;6.30;35.80
6486;DHT22;3276;48.490;9.222;2024-02-15T07:06:21;6.40;35.20
6486;DHT22;3276;48.490;9.222;2024-02-15T07:08:47;6.40;36.60
6486;DHT22;3276;48.490;9.222;2024-02-15T07:11:13;6.50;36.10
6486;DHT22;3276;48.490;9.222;2024-02-15T07:13:39;6.60;35.00
6486;DHT22;3276;48.490;9.222;2024-02-15T07:16:08;6.70;34.40
6486;DHT22;3276;48.490;9.222;2024-02-15T07:18:33;6.90;33.10
6486;DHT22;3276;48.490;9.222;2024-02-15T07:20:59;7.00;33.10
6486;DHT22;3276;48.490;9.222;2024-02-15T07:28:20;7.70;43.40
6486;DHT22;3276;48.490;9.222;2024-02-15T07:30:46;7.60;40.40
6486;DHT22;3276;48.490;9.222;2024-02-15T07:40:35;8.10;47.60
6486;DHT22;3276;48.490;9.222;2024-02-15T07:43:01;8.10;40.40
6486;DHT22;3276;48.490;9.222;2024-02-15T07:45:28;8.20;42.50
6486;DHT22;3276;48.490;9.222;2024-02-15T07:52:48;8.70;41.00
6486;DHT22;3276;48.490;9.222;2024-02-15T07:57:40;9.10;35.70
6486;DHT22;3276;48.490;9.222;2024-02-15T08:10:07;9.90;35.40
6486;DHT22;3276;48.490;9.222;2024-02-15T08:12:45;10.10;33.20
6486;DHT22;3276;48.490;9.222;2024-02-15T08:34:59;11.30;22.00
6486;DHT22;3276;48.490;9.222;2024-02-15T08:39:51;12.00;1.00
6486;DHT22;3276;48.490;9.222;2024-02-15T08:42:18;12.20;1.00
6486;DHT22;3276;48.490;9.222;2024-02-15T08:44:48;12.30;1.00
6486;DHT22;3276;48.490;9.222;2024-02-15T08:47:13;12.50;1.00
6486;DHT22;3276;48.490;9.222;2024-02-15T08:49:39;12.50;1.00
6486;DHT22;3276;48.490;9.222;2024-02-15T08:52:06;12.60;1.00
6486;DHT22;3276;48.490;9.222;2024-02-15T08:54:33;12.70;1.00
6486;DHT22;3276;48.490;9.222;2024-02-15T08:56:59;12.70;1.00
6486;DHT22;3276;48.490;9.222;2024-02-15T08:59:24;12.70;1.00
6486;DHT22;3276;48.490;9.222;2024-02-15T09:01:50;12.80;1.00
6486;DHT22;3276;48.490;9.222;2024-02-15T09:04:16;12.80;1.00
6486;DHT22;3276;48.490;9.222;2024-02-15T09:06:43;12.70;1.00
6486;DHT22;3276;48.490;9.222;2024-02-15T09:09:08;12.60;2.50
6486;DHT22;3276;48.490;9.222;2024-02-15T09:11:34;12.60;3.40
6486;DHT22;3276;48.490;9.222;2024-02-15T09:14:00;12.50;2.50
6486;DHT22;3276;48.490;9.222;2024-02-15T09:16:25;12.50;3.70
6486;DHT22;3276;48.490;9.222;2024-02-15T09:18:51;12.40;3.10
6486;DHT22;3276;48.490;9.222;2024-02-15T09:21:16;12.30;3.90
6486;DHT22;3276;48.490;9.222;2024-02-15T09:23:42;12.30;5.30
6486;DHT22;3276;48.490;9.222;2024-02-15T09:26:07;12.20;4.90
6486;DHT22;3276;48.490;9.222;2024-02-15T09:28:35;12.10;8.80
6486;DHT22;3276;48.490;9.222;2024-02-15T09:31:01;12.10;3.50
6486;DHT22;3276;48.490;9.222;2024-02-15T09:33:27;12.10;3.60
6486;DHT22;3276;48.490;9.222;2024-02-15T09:35:52;12.20;3.30
6486;DHT22;3276;48.490;9.222;2024-02-15T09:38:20;12.30;3.00
6486;DHT22;3276;48.490;9.222;2024-02-15T09:40:50;12.30;3.40
6486;DHT22;3276;48.490;9.222;2024-02-15T09:43:16;12.40;4.10
6486;DHT22;3276;48.490;9.222;2024-02-15T09:45:42;12.40;3.90
6486;DHT22;3276;48.490;9.222;2024-02-15T09:48:10;12.60;3.40
6486;DHT22;3276;48.490;9.222;2024-02-15T09:50:39;12.70;3.10
6486;DHT22;3276;48.490;9.222;2024-02-15T09:53:08;12.60;3.00
6486;DHT22;3276;48.490;9.222;2024-02-15T09:55:34;12.60;3.30
6486;DHT22;3276;48.490;9.222;2024-02-15T09:58:00;12.70;3.60
6486;DHT22;3276;48.490;9.222;2024-02-15T10:00:26;12.90;2.70
6486;DHT22;3276;48.490;9.222;2024-02-15T10:02:52;13.00;2.80
6486;DHT22;3276;48.490;9.222;2024-02-15T10:05:18;13.00;2.70
6486;DHT22;3276;48.490;9.222;2024-02-15T10:07:45;13.10;3.10
6486;DHT22;3276;48.490;9.222;2024-02-15T10:10:23;13.20;2.50
6486;DHT22;3276;48.490;9.222;2024-02-15T10:12:49;13.20;2.90
6486;DHT22;3276;48.490;9.222;2024-02-15T10:15:34;13.40;3.00
6486;DHT22;3276;48.490;9.222;2024-02-15T10:18:10;13.40;3.00
6486;DHT22;3276;48.490;9.222;2024-02-15T10:20:38;13.40;3.00
6486;DHT22;3276;48.490;9.222;2024-02-15T10:25:34;13.50;3.30
6486;DHT22;3276;48.490;9.222;2024-02-15T10:28:23;13.70;1.00
6486;DHT22;3276;48.490;9.222;2024-02-15T10:30:49;13.70;1.00
6486;DHT22;3276;48.490;9.222;2024-02-15T10:35:46;13.90;1.00
6486;DHT22;3276;48.490;9.222;2024-02-15T10:38:12;13.90;1.00
6486;DHT22;3276;48.490;9.222;2024-02-15T10:40:39;13.90;1.00
6486;DHT22;3276;48.490;9.222;2024-02-15T10:43:09;14.10;1.00
6486;DHT22;3276;48.490;9.222;2024-02-15T10:45:37;14.30;1.00
6486;DHT22;3276;48.490;9.222;2024-02-15T10:48:07;14.40;1.00
6486;DHT22;3276;48.490;9.222;2024-02-15T10:50:33;14.50;1.00
6486;DHT22;3276;48.490;9.222;2024-02-15T10:52:59;14.70;1.00
6486;DHT22;3276;48.490;9.222;2024-02-15T10:58:00;14.80;1.00
6486;DHT22;3276;48.490;9.222;2024-02-15T11:00:29;15.00;1.00
6486;DHT22;3276;48.490;9.222;2024-02-15T11:03:08;15.20;1.00
6486;DHT22;3276;48.490;9.222;2024-02-15T11:05:36;15.30;1.00
6486;DHT22;3276;48.490;9.222;2024-02-15T11:08:07;15.40;1.00
6486;DHT22;3276;48.490;9.222;2024-02-15T11:10:37;15.60;1.00
6486;DHT22;3276;48.490;9.222;2024-02-15T11:13:03;15.70;1.00
6486;DHT22;3276;48.490;9.222;2024-02-15T11:15:48;15.80;1.00
6486;DHT22;3276;48.490;9.222;2024-02-15T11:21:17;16.20;1.00
6486;DHT22;3276;48.490;9.222;2024-02-15T11:23:44;16.20;1.00
6486;DHT22;3276;48.490;9.222;2024-02-15T11:26:44;16.30;1.00
6486;DHT22;3276;48.490;9.222;2024-02-15T11:35:15;16.40;1.00
6486;DHT22;3276;48.490;9.222;2024-02-15T11:40:17;16.70;1.00
6486;DHT22;3276;48.490;9.222;2024-02-15T11:42:45;16.60;1.00
6486;DHT22;3276;48.490;9.222;2024-02-15T11:45:12;16.70;1.00
6486;DHT22;3276;48.490;9.222;2024-02-15T11:47:41;16.80;1.00
6486;DHT22;3276;48.490;9.222;2024-02-15T11:50:11;16.90;1.00
6486;DHT22;3276;48.490;9.222;2024-02-15T11:52:39;17.10;1.00
6486;DHT22;3276;48.490;9.222;2024-02-15T11:55:06;17.30;1.00
6486;DHT22;3276;48.490;9.222;2024-02-15T11:57:41;17.40;1.00
6486;DHT22;3276;48.490;9.222;2024-02-15T12:00:25;17.60;1.00
6486;DHT22;3276;48.490;9.222;2024-02-15T12:03:09;17.70;1.00
6486;DHT22;3276;48.490;9.222;2024-02-15T12:05:54;17.90;1.00
6486;DHT22;3276;48.490;9.222;2024-02-15T12:08:39;18.10;1.00
6486;DHT22;3276;48.490;9.222;2024-02-15T12:11:24;18.10;1.00
6486;DHT22;3276;48.490;9.222;2024-02-15T12:14:12;18.20;1.00
6486;DHT22;3276;48.490;9.222;2024-02-15T12:17:14;18.20;1.00
6486;DHT22;3276;48.490;9.222;2024-02-15T12:20:03;18.20;1.00
6486;DHT22;3276;48.490;9.222;2024-02-15T12:22:40;18.30;1.00
6486;DHT22;3276;48.490;9.222;2024-02-15T12:25:06;18.40;1.00
6486;DHT22;3276;48.490;9.222;2024-02-15T12:27:38;18.30;1.00
6486;DHT22;3276;48.490;9.222;2024-02-15T12:30:05;18.40;1.00
6486;DHT22;3276;48.490;9.222;2024-02-15T12:32:32;18.50;1.00
6486;DHT22;3276;48.490;9.222;2024-02-15T12:35:12;18.40;1.00
6486;DHT22;3276;48.490;9.222;2024-02-15T12:40:35;18.50;1.00
6486;DHT22;3276;48.490;9.222;2024-02-15T12:43:02;18.50;1.00
6486;DHT22;3276;48.490;9.222;2024-02-15T12:45:31;18.60;1.00
6486;DHT22;3276;48.490;9.222;2024-02-15T12:47:57;18.60;1.00
6486;DHT22;3276;48.490;9.222;2024-02-15T12:50:28;18.60;1.00
6486;DHT22;3276;48.490;9.222;2024-02-15T12:52:55;18.40;1.00
6486;DHT22;3276;48.490;9.222;2024-02-15T12:55:31;18.10;1.00
6486;DHT22;3276;48.490;9.222;2024-02-15T12:58:00;18.30;1.00
6486;DHT22;3276;48.490;9.222;2024-02-15T13:00:30;18.50;1.00
6486;DHT22;3276;48.490;9.222;2024-02-15T13:02:59;18.30;1.00
6486;DHT22;3276;48.490;9.222;2024-02-15T13:05:27;18.30;1.00
6486;DHT22;3276;48.490;9.222;2024-02-15T13:07:54;18.30;1.00
6486;DHT22;3276;48.490;9.222;2024-02-15T13:10:21;18.30;1.00
6486;DHT22;3276;48.490;9.222;2024-02-15T13:12:47;18.30;1.00
6486;DHT22;3276;48.490;9.222;2024-02-15T13:15:14;18.10;1.00
6486;DHT22;3276;48.490;9.222;2024-02-15T13:17:50;18.20;1.00
6486;DHT22;3276;48.490;9.222;2024-02-15T13:20:19;18.20;1.00
6486;DHT22;3276;48.490;9.222;2024-02-15T13:22:53;18.20;1.00
6486;DHT22;3276;48.490;9.222;2024-02-15T13:25:19;18.30;1.00
6486;DHT22;3276;48.490;9.222;2024-02-15T13:27:46;18.20;1.00
6486;DHT22;3276;48.490;9.222;2024-02-15T13:30:12;18.10;1.00
6486;DHT22;3276;48.490;9.222;2024-02-15T13:32:39;18.10;1.00
6486;DHT22;3276;48.490;9.222;2024-02-15T13:35:07;18.20;1.00
6486;DHT22;3276;48.490;9.222;2024-02-15T13:37:47;18.30;1.00
6486;DHT22;3276;48.490;9.222;2024-02-15T13:40:14;18.30;1.00
6486;DHT22;3276;48.490;9.222;2024-02-15T13:42:47;18.20;1.00
6486;DHT22;3276;48.490;9.222;2024-02-15T13:45:20;18.20;1.00
6486;DHT22;3276;48.490;9.222;2024-02-15T13:47:48;18.30;1.00
6486;DHT22;3276;48.490;9.222;2024-02-15T13:50:14;18.50;1.00
6486;DHT22;3276;48.490;9.222;2024-02-15T13:52:46;18.50;1.00
6486;DHT22;3276;48.490;9.222;2024-02-15T13:55:14;18.70;1.00
6486;DHT22;3276;48.490;9.222;2024-02-15T13:57:41;18.60;1.00
6486;DHT22;3276;48.490;9.222;2024-02-15T14:00:08;18.40;1.00
6486;DHT22;3276;48.490;9.222;2024-02-15T14:02:41;18.30;1.00
6486;DHT22;3276;48.490;9.222;2024-02-15T14:05:09;18.20;1.00
6486;DHT22;3276;48.490;9.222;2024-02-15T14:07:35;18.10;1.00
6486;DHT22;3276;48.490;9.222;2024-02-15T14:10:02;18.00;1.00
6486;DHT22;3276;48.490;9.222;2024-02-15T14:12:27;18.00;1.00
6486;DHT22;3276;48.490;9.222;2024-02-15T14:14:53;18.00;1.00
6486;DHT22;3276;48.490;9.222;2024-02-15T14:17:18;17.90;1.00
6486;DHT22;3276;48.490;9.222;2024-02-15T14:19:45;17.80;1.00
6486;DHT22;3276;48.490;9.222;2024-02-15T14:22:12;17.90;1.00
6486;DHT22;3276;48.490;9.222;2024-02-15T14:24:41;17.80;1.00
6486;DHT22;3276;48.490;9.222;2024-02-15T14:27:09;17.90;1.00
6486;DHT22;3276;48.490;9.222;2024-02-15T14:29:35;18.10;1.00
6486;DHT22;3276;48.490;9.222;2024-02-15T14:32:03;18.20;1.00
6486;DHT22;3276;48.490;9.222;2024-02-15T14:34:48;18.30;1.00
6486;DHT22;3276;48.490;9.222;2024-02-15T14:37:15;18.30;1.00
6486;DHT22;3276;48.490;9.222;2024-02-15T14:39:42;18.20;1.00
6486;DHT22;3276;48.490;9.222;2024-02-15T14:42:08;18.00;1.00
6486;DHT22;3276;48.490;9.222;2024-02-15T14:44:34;17.90;1.00
6486;DHT22;3276;48.490;9.222;2024-02-15T14:46:59;17.90;1.00
6486;DHT22;3276;48.490;9.222;2024-02-15T14:49:25;18.00;1.00
6486;DHT22;3276;48.490;9.222;2024-02-15T14:51:50;18.00;1.00
6486;DHT22;3276;48.490;9.222;2024-02-15T14:54:16;18.10;1.00
6486;DHT22;3276;48.490;9.222;2024-02-15T14:56:44;18.30;1.00
6486;DHT22;3276;48.490;9.222;2024-02-15T14:59:10;18.30;1.00
6486;DHT22;3276;48.490;9.222;2024-02-15T15:01:37;18.40;1.00
6486;DHT22;3276;48.490;9.222;2024-02-15T15:04:03;18.20;1.00
6486;DHT22;3276;48.490;9.222;2024-02-15T15:06:31;18.30;1.00
6486;DHT22;3276;48.490;9.222;2024-02-15T15:09:15;18.30;1.00
6486;DHT22;3276;48.490;9.222;2024-02-15T15:11:59;18.10;1.00
6486;DHT22;3276;48.490;9.222;2024-02-15T15:14:48;18.10;1.00
6486;DHT22;3276;48.490;9.222;2024-02-15T15:17:13;18.10;1.00
6486;DHT22;3276;48.490;9.222;2024-02-15T15:19:41;18.10;1.00
6486;DHT22;3276;48.490;9.222;2024-02-15T15:22:06;18.10;1.00
6486;DHT22;3276;48.490;9.222;2024-02-15T15:24:32;18.00;1.00
6486;DHT22;3276;48.490;9.222;2024-02-15T15:26:59;17.90;1.00
6486;DHT22;3276;48.490;9.222;2024-02-15T15:29:25;17.70;1.00
6486;DHT22;3276;48.490;9.222;2024-02-15T15:31:50;17.60;1.00
6486;DHT22;3276;48.490;9.222;2024-02-15T15:34:17;17.40;1.00
6486;DHT22;3276;48.490;9.222;2024-02-15T15:36:45;17.30;1.00
6486;DHT22;3276;48.490;9.222;2024-02-15T15:39:12;17.10;1.00
6486;DHT22;3276;48.490;9.222;2024-02-15T15:41:38;17.10;1.00
6486;DHT22;3276;48.490;9.222;2024-02-15T15:44:03;16.90;1.00
6486;DHT22;3276;48.490;9.222;2024-02-15T15:46:30;16.80;1.00
6486;DHT22;3276;48.490;9.222;2024-02-15T15:49:01;16.70;1.00
6486;DHT22;3276;48.490;9.222;2024-02-15T15:51:26;16.60;1.00
6486;DHT22;3276;48.490;9.222;2024-02-15T15:53:52;16.50;1.00
6486;DHT22;3276;48.490;9.222;2024-02-15T15:56:20;16.40;1.00
6486;DHT22;3276;48.490;9.222;2024-02-15T15:58:47;16.30;1.00
6486;DHT22;3276;48.490;9.222;2024-02-15T16:01:14;16.10;1.00
6486;DHT22;3276;48.490;9.222;2024-02-15T16:03:39;16.00;1.00
6486;DHT22;3276;48.490;9.222;2024-02-15T16:06:05;15.90;1.00
6486;DHT22;3276;48.490;9.222;2024-02-15T16:08:33;15.80;1.00
6486;DHT22;3276;48.490;9.222;2024-02-15T16:10:59;15.60;1.00
6486;DHT22;3276;48.490;9.222;2024-02-15T16:13:24;15.60;1.00
6486;DHT22;3276;48.490;9.222;2024-02-15T16:15:54;15.50;1.00
6486;DHT22;3276;48.490;9.222;2024-02-15T16:18:21;15.40;1.00
6486;DHT22;3276;48.490;9.222;2024-02-15T16:20:46;15.20;1.00
6486;DHT22;3276;48.490;9.222;2024-02-15T16:23:12;15.10;1.00
6486;DHT22;3276;48.490;9.222;2024-02-15T16:25:38;15.00;1.00
6486;DHT22;3276;48.490;9.222;2024-02-15T16:28:04;14.90;1.00
6486;DHT22;3276;48.490;9.222;2024-02-15T16:30:35;14.80;1.00
6486;DHT22;3276;48.490;9.222;2024-02-15T16:33:01;14.70;1.00
6486;DHT22;3276;48.490;9.222;2024-02-15T16:35:27;14.60;1.00
6486;DHT22;3276;48.490;9.222;2024-02-15T16:37:52;14.50;1.00
6486;DHT22;3276;48.490;9.222;2024-02-15T16:40:18;14.40;1.00
6486;DHT22;3276;48.490;9.222;2024-02-15T16:42:48;14.30;1.00
6486;DHT22;3276;48.490;9.222;2024-02-15T16:45:14;14.20;1.00
6486;DHT22;3276;48.490;9.222;2024-02-15T16:47:42;14.10;1.00
6486;DHT22;3276;48.490;9.222;2024-02-15T16:50:15;14.10;1.00
6486;DHT22;3276;48.490;9.222;2024-02-15T16:52:40;14.00;1.00
6486;DHT22;3276;48.490;9.222;2024-02-15T16:55:06;14.00;1.00
6486;DHT22;3276;48.490;9.222;2024-02-15T16:57:33;13.90;1.00
6486;DHT22;3276;48.490;9.222;2024-02-15T16:59:59;13.90;1.00
6486;DHT22;3276;48.490;9.222;2024-02-15T17:02:24;13.90;1.00
6486;DHT22;3276;48.490;9.222;2024-02-15T17:04:50;13.80;1.00
6486;DHT22;3276;48.490;9.222;2024-02-15T17:07:16;13.80;1.00
6486;DHT22;3276;48.490;9.222;2024-02-15T17:09:41;13.80;1.00
6486;DHT22;3276;48.490;9.222;2024-02-15T17:12:07;13.70;1.00
6486;DHT22;3276;48.490;9.222;2024-02-15T17:14:33;13.70;1.00
6486;DHT22;3276;48.490;9.222;2024-02-15T17:17:00;13.60;1.00
6486;DHT22;3276;48.490;9.222;2024-02-15T17:19:25;13.60;1.00
6486;DHT22;3276;48.490;9.222;2024-02-15T17:21:51;13.60;1.00
6486;DHT22;3276;48.490;9.222;2024-02-15T17:24:16;13.60;1.00
6486;DHT22;3276;48.490;9.222;2024-02-15T17:26:44;13.60;1.00
6486;DHT22;3276;48.490;9.222;2024-02-15T17:29:13;13.60;1.00
6486;DHT22;3276;48.490;9.222;2024-02-15T17:31:40;13.60;1.00
6486;DHT22;3276;48.490;9.222;2024-02-15T17:34:08;13.60;1.00
6486;DHT22;3276;48.490;9.222;2024-02-15T17:36:40;13.60;1.00
6486;DHT22;3276;48.490;9.222;2024-02-15T17:39:06;13.60;1.00